createdAt,value
2022-09-24T00:02:02.199Z,16.61
2022-09-24T00:04:30.136Z,16.63
2022-09-24T00:06:57.930Z,16.64
2022-09-24T00:09:25.654Z,16.65
2022-09-24T00:11:53.864Z,16.66
2022-09-24T00:14:21.697Z,16.65
2022-09-24T00:16:50.026Z,16.65
2022-09-24T00:19:17.848Z,16.68
2022-09-24T00:21:45.584Z,16.66
2022-09-24T00:24:36.384Z,16.66
2022-09-24T00:27:06.377Z,16.69
2022-09-24T00:29:35.838Z,16.68
2022-09-24T00:32:05.691Z,16.71
2022-09-24T00:34:34.238Z,16.74
2022-09-24T00:37:02.193Z,16.76
2022-09-24T00:39:30.148Z,16.73
2022-09-24T00:41:57.882Z,16.72
2022-09-24T00:44:50.923Z,16.69
2022-09-24T00:47:29.452Z,16.69
2022-09-24T00:50:23.568Z,16.72
2022-09-24T00:53:06.260Z,16.80
2022-09-24T00:55:37.026Z,16.78
2022-09-24T00:58:08.631Z,16.78
2022-09-24T01:00:44.737Z,16.81
2022-09-24T01:03:17.119Z,16.80
2022-09-24T01:05:45.047Z,16.77
2022-09-24T01:08:17.942Z,16.78
2022-09-24T01:11:39.117Z,16.80
2022-09-24T01:14:13.871Z,16.78
2022-09-24T01:17:07.824Z,16.71
2022-09-24T01:20:17.431Z,16.70
2022-09-24T01:23:21.074Z,16.68
2022-09-24T01:26:20.131Z,16.63
2022-09-24T01:29:28.372Z,16.56
2022-09-24T01:32:41.133Z,16.47
2022-09-24T01:35:28.571Z,16.37
2022-09-24T01:38:09.698Z,16.28
2022-09-24T01:40:39.937Z,16.24
2022-09-24T01:43:10.967Z,16.17
2022-09-24T01:45:40.032Z,16.12
2022-09-24T01:48:08.786Z,16.12
2022-09-24T01:50:58.054Z,16.09
2022-09-24T01:53:32.144Z,16.10
2022-09-24T01:56:21.530Z,16.14
2022-09-24T01:59:03.202Z,16.21
2022-09-24T02:01:53.006Z,16.24
2022-09-24T02:04:23.854Z,16.26
2022-09-24T02:07:04.200Z,16.28
2022-09-24T02:09:43.721Z,16.28
2022-09-24T02:12:17.351Z,16.28
2022-09-24T02:14:54.864Z,16.27
2022-09-24T02:17:30.478Z,16.27
2022-09-24T02:20:02.910Z,16.26
2022-09-24T02:22:32.309Z,16.29
2022-09-24T02:25:04.155Z,16.30
2022-09-24T02:27:32.173Z,16.31
2022-09-24T02:30:00.692Z,16.31
2022-09-24T02:32:34.309Z,16.33
2022-09-24T02:35:08.103Z,16.34
2022-09-24T02:37:41.545Z,16.41
2022-09-24T02:40:13.904Z,16.38
2022-09-24T02:42:43.548Z,16.29
2022-09-24T02:45:12.493Z,16.26
2022-09-24T02:47:40.240Z,16.26
2022-09-24T02:50:08.696Z,16.25
2022-09-24T02:52:36.433Z,16.24
2022-09-24T02:55:05.031Z,16.21
2022-09-24T02:57:33.109Z,16.18
2022-09-24T03:00:00.965Z,16.17
2022-09-24T03:02:28.903Z,16.15
2022-09-24T03:04:56.816Z,16.16
2022-09-24T03:07:24.501Z,16.14
2022-09-24T03:09:52.243Z,16.13
2022-09-24T03:12:19.919Z,16.14
2022-09-24T03:14:47.678Z,16.14
2022-09-24T03:17:15.385Z,16.13
2022-09-24T03:19:43.278Z,16.13
2022-09-24T03:22:11.015Z,16.14
2022-09-24T03:24:38.788Z,16.13
2022-09-24T03:27:06.507Z,16.14
2022-09-24T03:29:52.860Z,16.17
2022-09-24T03:32:20.668Z,16.17
2022-09-24T03:34:48.409Z,16.18
2022-09-24T03:37:16.181Z,16.19
2022-09-24T03:39:43.935Z,16.20
2022-09-24T03:42:11.702Z,16.20
2022-09-24T03:44:39.439Z,16.23
2022-09-24T03:47:07.598Z,16.22
2022-09-24T03:49:35.436Z,16.22
2022-09-24T03:52:03.239Z,16.22
2022-09-24T03:54:31.310Z,16.24
2022-09-24T03:56:59.041Z,16.25
2022-09-24T03:59:26.810Z,16.25
2022-09-24T04:01:55.350Z,16.23
2022-09-24T04:04:23.152Z,16.23
2022-09-24T04:06:52.381Z,16.24
2022-09-24T04:09:20.114Z,16.23
2022-09-24T04:11:47.823Z,16.19
2022-09-24T04:14:15.534Z,16.15
2022-09-24T04:16:43.256Z,16.14
2022-09-24T04:19:12.088Z,16.10
2022-09-24T04:21:39.869Z,16.08
2022-09-24T04:24:07.882Z,16.08
2022-09-24T04:26:35.784Z,16.09
2022-09-24T04:29:05.383Z,16.10
2022-09-24T04:31:33.483Z,16.09
2022-09-24T04:34:02.111Z,16.09
2022-09-24T04:36:29.823Z,16.10
2022-09-24T04:38:57.633Z,16.07
2022-09-24T04:41:25.408Z,16.04
2022-09-24T04:43:53.164Z,16.05
2022-09-24T04:46:20.940Z,16.06
2022-09-24T04:48:49.042Z,16.07
2022-09-24T04:51:19.432Z,16.09
2022-09-24T04:53:48.067Z,16.10
2022-09-24T04:56:15.797Z,16.10
2022-09-24T04:58:44.715Z,16.11
2022-09-24T05:01:13.468Z,16.09
2022-09-24T05:03:41.381Z,16.09
2022-09-24T05:06:09.100Z,16.06
2022-09-24T05:08:36.827Z,16.05
2022-09-24T05:11:04.655Z,16.04
2022-09-24T05:13:32.467Z,16.03
2022-09-24T05:16:01.061Z,15.98
2022-09-24T05:18:29.063Z,15.98
2022-09-24T05:20:56.855Z,15.95
2022-09-24T05:23:25.190Z,15.94
2022-09-24T05:26:11.750Z,15.94
2022-09-24T05:28:41.075Z,15.95
2022-09-24T05:31:10.732Z,15.92
2022-09-24T05:33:38.952Z,15.93
2022-09-24T05:36:06.850Z,15.91
2022-09-24T05:38:34.604Z,15.87
2022-09-24T05:41:02.454Z,15.87
2022-09-24T05:43:31.801Z,15.86
2022-09-24T05:45:59.544Z,15.83
2022-09-24T05:48:27.269Z,15.75
2022-09-24T05:50:55.505Z,15.77
2022-09-24T05:53:24.699Z,15.83
2022-09-24T05:55:52.762Z,15.88
2022-09-24T05:58:20.750Z,15.89
2022-09-24T06:00:48.621Z,15.87
2022-09-24T06:03:18.546Z,15.84
2022-09-24T06:05:51.748Z,15.84
2022-09-24T06:08:21.035Z,15.78
2022-09-24T06:10:49.382Z,15.79
2022-09-24T06:13:19.445Z,15.79
2022-09-24T06:15:47.370Z,15.78
2022-09-24T06:18:15.500Z,15.82
2022-09-24T06:20:44.446Z,15.89
2022-09-24T06:23:12.224Z,15.93
2022-09-24T06:25:40.178Z,16.00
2022-09-24T06:28:07.960Z,16.06
2022-09-24T06:30:44.336Z,16.09
2022-09-24T06:33:13.961Z,16.08
2022-09-24T06:35:44.044Z,16.06
2022-09-24T06:38:15.394Z,16.13
2022-09-24T06:40:45.606Z,16.13
2022-09-24T06:43:14.430Z,16.17
2022-09-24T06:45:45.357Z,16.15
2022-09-24T06:48:14.741Z,16.24
2022-09-24T06:50:45.405Z,16.31
2022-09-24T06:53:14.500Z,16.37
2022-09-24T06:55:42.898Z,16.35
2022-09-24T06:58:22.097Z,16.36
2022-09-24T07:00:55.111Z,16.43
2022-09-24T07:03:22.925Z,16.48
2022-09-24T07:05:50.698Z,16.54
2022-09-24T07:08:18.778Z,16.59
2022-09-24T07:10:52.515Z,16.66
2022-09-24T07:13:23.450Z,16.85
2022-09-24T07:15:52.814Z,16.91
2022-09-24T07:18:24.573Z,16.93
2022-09-24T07:20:57.364Z,16.97
2022-09-24T07:23:26.228Z,17.04
2022-09-24T07:25:57.247Z,17.10
2022-09-24T07:28:25.519Z,17.18
2022-09-24T07:31:00.521Z,17.22
2022-09-24T07:33:30.842Z,17.25
2022-09-24T07:35:58.549Z,17.21
2022-09-24T07:38:27.017Z,17.24
2022-09-24T07:40:59.409Z,17.28
2022-09-24T07:43:29.186Z,17.30
2022-09-24T07:45:58.225Z,17.37
2022-09-24T07:48:26.535Z,17.41
2022-09-24T07:50:55.632Z,17.49
2022-09-24T07:53:24.264Z,17.55
2022-09-24T07:55:52.704Z,17.60
2022-09-24T07:58:20.588Z,17.62
2022-09-24T08:00:48.307Z,17.62
2022-09-24T08:03:18.563Z,17.67
2022-09-24T08:05:46.761Z,17.64
2022-09-24T08:08:15.310Z,17.65
2022-09-24T08:10:43.569Z,17.70
2022-09-24T08:13:11.605Z,17.70
2022-09-24T08:15:39.969Z,17.72
2022-09-24T08:18:07.896Z,17.69
2022-09-24T08:20:38.481Z,17.75
2022-09-24T08:23:12.735Z,17.78
2022-09-24T08:25:40.426Z,17.79
2022-09-24T08:28:12.155Z,17.81
2022-09-24T08:30:40.542Z,17.84
2022-09-24T08:33:09.834Z,17.89
2022-09-24T08:35:41.260Z,17.96
2022-09-24T08:38:09.602Z,18.04
2022-09-24T08:40:46.655Z,18.10
2022-09-24T08:43:37.859Z,18.13
2022-09-24T08:46:44.105Z,18.20
2022-09-24T08:49:20.724Z,18.24
2022-09-24T08:52:09.393Z,18.25
2022-09-24T08:54:38.420Z,18.30
2022-09-24T08:57:14.659Z,18.33
2022-09-24T08:59:50.054Z,18.36
2022-09-24T09:02:48.185Z,18.38
2022-09-24T09:05:49.450Z,18.43
2022-09-24T09:08:50.395Z,18.46
2022-09-24T09:11:25.807Z,18.57
2022-09-24T09:14:00.258Z,18.66
2022-09-24T09:16:36.892Z,18.76
2022-09-24T09:19:09.659Z,18.85
2022-09-24T09:21:43.847Z,19.00
2022-09-24T09:24:23.439Z,18.97
2022-09-24T09:26:56.176Z,18.99
2022-09-24T09:29:28.035Z,19.01
2022-09-24T09:32:39.519Z,19.08
2022-09-24T09:35:36.017Z,19.14
2022-09-24T09:38:47.696Z,19.17
2022-09-24T09:41:39.553Z,19.20
2022-09-24T09:44:30.677Z,19.25
2022-09-24T09:47:41.382Z,19.31
2022-09-24T09:50:37.293Z,19.37
2022-09-24T09:53:05.697Z,19.36
2022-09-24T09:55:38.348Z,19.38
2022-09-24T09:58:21.927Z,19.47
2022-09-24T10:00:50.410Z,19.54
2022-09-24T10:03:31.664Z,19.59
2022-09-24T10:06:06.667Z,19.60
2022-09-24T10:08:34.399Z,19.60
2022-09-24T10:11:03.535Z,19.61
2022-09-24T10:13:34.347Z,19.62
2022-09-24T10:16:09.091Z,19.66
2022-09-24T10:18:43.498Z,19.73
2022-09-24T10:21:15.410Z,19.78
2022-09-24T10:23:49.353Z,19.79
2022-09-24T10:26:17.943Z,19.85
2022-09-24T10:29:08.709Z,19.93
2022-09-24T10:31:40.006Z,19.98
2022-09-24T10:34:24.768Z,20.03
2022-09-24T10:37:13.446Z,20.09
2022-09-24T10:39:42.049Z,20.09
2022-09-24T10:42:29.315Z,20.11
2022-09-24T10:45:04.679Z,20.11
2022-09-24T10:48:08.929Z,20.12
2022-09-24T10:50:45.140Z,20.11
2022-09-24T10:53:52.751Z,20.05
2022-09-24T10:56:47.426Z,20.12
2022-09-24T10:59:40.873Z,20.13
2022-09-24T11:02:20.403Z,20.16
2022-09-24T11:04:54.712Z,20.18
2022-09-24T11:07:55.132Z,20.27
2022-09-24T11:10:44.300Z,20.41
2022-09-24T11:13:17.618Z,20.49
2022-09-24T11:16:33.862Z,20.56
2022-09-24T11:19:28.586Z,20.54
2022-09-24T11:22:16.740Z,20.49
2022-09-24T11:24:44.426Z,20.42
2022-09-24T11:27:42.889Z,20.41
2022-09-24T11:30:13.610Z,20.38
2022-09-24T11:33:25.723Z,20.39
2022-09-24T11:36:22.395Z,20.36
2022-09-24T11:38:55.929Z,20.31
2022-09-24T11:41:44.451Z,20.33
2022-09-24T11:45:00.432Z,20.32
2022-09-24T11:47:54.368Z,20.32
2022-09-24T11:50:59.461Z,20.31
2022-09-24T11:53:52.354Z,20.23
2022-09-24T11:56:35.837Z,20.17
2022-09-24T11:59:14.268Z,20.14
2022-09-24T12:02:01.316Z,20.05
2022-09-24T12:04:52.260Z,19.99
2022-09-24T12:07:53.464Z,19.93
2022-09-24T12:10:39.823Z,19.83
2022-09-24T12:13:28.489Z,19.72
2022-09-24T12:16:19.644Z,19.69
2022-09-24T12:19:12.559Z,19.67
2022-09-24T12:21:45.353Z,19.61
2022-09-24T12:24:36.415Z,19.61
2022-09-24T12:27:19.386Z,19.58
2022-09-24T12:30:33.114Z,19.59
2022-09-24T12:33:09.583Z,19.58
2022-09-24T12:36:11.784Z,19.51
2022-09-24T12:38:50.438Z,19.51
2022-09-24T12:41:51.492Z,19.48
2022-09-24T12:44:47.296Z,19.51
2022-09-24T12:47:23.272Z,19.54
2022-09-24T12:49:59.160Z,19.56
2022-09-24T12:52:43.276Z,19.58
2022-09-24T12:55:27.009Z,19.64
2022-09-24T12:58:08.377Z,19.72
2022-09-24T13:00:43.845Z,19.76
2022-09-24T13:03:35.778Z,19.73
2022-09-24T13:06:22.696Z,19.74
2022-09-24T13:08:50.850Z,19.73
2022-09-24T13:11:31.986Z,19.73
2022-09-24T13:14:12.656Z,19.71
2022-09-24T13:16:43.262Z,19.65
2022-09-24T13:19:44.526Z,19.66
2022-09-24T13:22:31.463Z,19.67
2022-09-24T13:25:23.527Z,19.67
2022-09-24T13:28:04.065Z,19.68
2022-09-24T13:30:38.783Z,19.72
2022-09-24T13:33:32.045Z,19.76
2022-09-24T13:36:33.607Z,19.84
2022-09-24T13:39:32.571Z,19.93
2022-09-24T13:42:28.169Z,20.01
2022-09-24T13:45:08.790Z,20.03
2022-09-24T13:47:47.968Z,20.05
2022-09-24T13:50:29.302Z,20.11
2022-09-24T13:53:08.432Z,20.20
2022-09-24T13:55:59.714Z,20.24
2022-09-24T13:58:33.534Z,20.29
2022-09-24T14:01:12.860Z,20.31
2022-09-24T14:03:42.886Z,20.30
2022-09-24T14:06:17.546Z,20.33
2022-09-24T14:08:47.148Z,20.31
2022-09-24T14:11:27.425Z,20.30
2022-09-24T14:13:56.428Z,20.30
2022-09-24T14:16:27.190Z,20.30
2022-09-24T14:19:03.580Z,20.31
2022-09-24T14:21:42.327Z,20.29
2022-09-24T14:24:29.185Z,20.31
2022-09-24T14:27:01.673Z,20.29
2022-09-24T14:29:48.147Z,20.24
2022-09-24T14:32:29.753Z,20.22
2022-09-24T14:35:26.634Z,20.24
2022-09-24T14:38:08.906Z,20.26
2022-09-24T14:40:48.050Z,20.25
2022-09-24T14:43:39.303Z,20.23
2022-09-24T14:46:23.360Z,20.25
2022-09-24T14:48:52.329Z,20.23
2022-09-24T14:51:29.781Z,20.24
2022-09-24T14:54:19.059Z,20.28
2022-09-24T14:56:46.846Z,20.29
2022-09-24T14:59:17.805Z,20.30
2022-09-24T15:01:45.718Z,20.31
2022-09-24T15:04:23.387Z,20.33
2022-09-24T15:06:51.228Z,20.32
2022-09-24T15:09:30.822Z,20.31
2022-09-24T15:12:33.097Z,20.28
2022-09-24T15:15:05.045Z,20.30
2022-09-24T15:17:35.374Z,20.26
2022-09-24T15:20:05.408Z,20.26
2022-09-24T15:22:33.126Z,20.27
2022-09-24T15:25:02.285Z,20.27
2022-09-24T15:27:38.311Z,20.31
2022-09-24T15:30:11.052Z,20.37
2022-09-24T15:32:38.809Z,20.51
2022-09-24T15:35:10.045Z,20.55
2022-09-24T15:37:39.525Z,20.54
2022-09-24T15:40:25.529Z,20.57
2022-09-24T15:42:53.388Z,20.55
2022-09-24T15:45:24.212Z,20.50
2022-09-24T15:47:53.468Z,20.47
2022-09-24T15:50:23.536Z,20.43
2022-09-24T15:52:56.662Z,20.39
2022-09-24T15:55:24.637Z,20.35
2022-09-24T15:57:52.399Z,20.27
2022-09-24T16:00:23.908Z,20.22
2022-09-24T16:02:57.460Z,20.18
2022-09-24T16:05:25.407Z,20.26
2022-09-24T16:07:53.138Z,20.17
2022-09-24T16:10:21.036Z,20.09
2022-09-24T16:12:48.830Z,20.02
2022-09-24T16:15:16.939Z,19.95
2022-09-24T16:17:44.830Z,19.90
2022-09-24T16:20:12.839Z,19.89
2022-09-24T16:22:40.592Z,19.85
2022-09-24T16:25:08.951Z,19.84
2022-09-24T16:27:37.620Z,19.82
2022-09-24T16:30:06.660Z,19.77
2022-09-24T16:32:34.430Z,19.75
2022-09-24T16:35:02.318Z,19.72
2022-09-24T16:37:30.264Z,19.68
2022-09-24T16:39:58.155Z,19.65
2022-09-24T16:42:26.504Z,19.63
2022-09-24T16:44:54.285Z,19.61
2022-09-24T16:47:22.159Z,19.61
2022-09-24T16:49:50.002Z,19.57
2022-09-24T16:52:17.952Z,19.55
2022-09-24T16:54:45.764Z,19.51
2022-09-24T16:57:13.505Z,19.50
2022-09-24T16:59:41.295Z,19.44
2022-09-24T17:02:12.425Z,19.42
2022-09-24T17:04:40.558Z,19.35
2022-09-24T17:07:10.503Z,19.31
2022-09-24T17:09:56.871Z,19.29
2022-09-24T17:12:24.820Z,19.27
2022-09-24T17:14:52.834Z,19.25
2022-09-24T17:17:20.624Z,19.25
2022-09-24T17:19:48.418Z,19.26
2022-09-24T17:22:16.201Z,19.27
2022-09-24T17:24:44.003Z,19.27
2022-09-24T17:27:11.780Z,19.25
2022-09-24T17:29:39.569Z,19.25
2022-09-24T17:32:07.339Z,19.22
2022-09-24T17:34:35.148Z,19.22
2022-09-24T17:37:02.983Z,19.18
2022-09-24T17:39:30.963Z,19.17
2022-09-24T17:41:58.831Z,19.18
2022-09-24T17:44:26.619Z,19.15
2022-09-24T17:46:54.604Z,19.14
2022-09-24T17:49:23.155Z,19.14
2022-09-24T17:51:50.974Z,19.15
2022-09-24T17:54:21.367Z,19.13
2022-09-24T17:56:49.711Z,19.13
2022-09-24T17:59:17.617Z,19.14
2022-09-24T18:01:46.397Z,19.12
2022-09-24T18:04:18.352Z,19.08
2022-09-24T18:06:48.116Z,19.06
2022-09-24T18:09:18.226Z,19.05
2022-09-24T18:11:51.488Z,19.01
2022-09-24T18:14:22.312Z,19.02
2022-09-24T18:16:51.126Z,18.99
2022-09-24T18:19:18.956Z,18.96
2022-09-24T18:21:48.863Z,18.96
2022-09-24T18:24:17.504Z,18.95
2022-09-24T18:26:48.399Z,18.91
2022-09-24T18:29:19.279Z,18.89
2022-09-24T18:31:47.150Z,18.82
2022-09-24T18:34:17.362Z,18.77
2022-09-24T18:36:45.920Z,18.76
2022-09-24T18:39:21.999Z,18.73
2022-09-24T18:41:52.787Z,18.73
2022-09-24T18:44:20.689Z,18.70
2022-09-24T18:46:49.991Z,18.65
2022-09-24T18:49:18.000Z,18.64
2022-09-24T18:51:46.695Z,18.59
2022-09-24T18:54:15.671Z,18.57
2022-09-24T18:56:43.737Z,18.54
2022-09-24T18:59:15.689Z,18.52
2022-09-24T19:01:45.436Z,18.50
2022-09-24T19:04:14.567Z,18.52
2022-09-24T19:06:45.706Z,18.48
2022-09-24T19:09:17.271Z,18.47
2022-09-24T19:11:46.257Z,18.45
2022-09-24T19:14:18.075Z,18.44
2022-09-24T19:16:47.452Z,18.42
2022-09-24T19:19:16.292Z,18.43
2022-09-24T19:21:44.200Z,18.36
2022-09-24T19:24:11.946Z,18.36
2022-09-24T19:26:39.792Z,18.36
2022-09-24T19:29:07.666Z,18.34
2022-09-24T19:31:42.201Z,18.34
2022-09-24T19:34:13.547Z,18.32
2022-09-24T19:36:43.413Z,18.28
2022-09-24T19:39:15.834Z,18.26
2022-09-24T19:41:44.790Z,18.23
2022-09-24T19:44:13.125Z,18.19
2022-09-24T19:46:41.397Z,18.18
2022-09-24T19:49:09.395Z,18.18
2022-09-24T19:51:37.602Z,18.15
2022-09-24T19:54:08.682Z,18.15
2022-09-24T19:56:37.537Z,18.12
2022-09-24T19:59:05.968Z,18.11
2022-09-24T20:01:34.558Z,18.08
2022-09-24T20:04:07.456Z,18.08
2022-09-24T20:06:37.120Z,18.10
2022-09-24T20:09:05.665Z,18.05
2022-09-24T20:11:33.899Z,18.03
2022-09-24T20:14:01.956Z,18.00
2022-09-24T20:16:33.530Z,17.99
2022-09-24T20:19:03.422Z,17.98
2022-09-24T20:21:35.117Z,18.00
2022-09-24T20:24:05.401Z,18.00
2022-09-24T20:26:52.814Z,17.98
2022-09-24T20:29:22.056Z,17.97
2022-09-24T20:31:53.433Z,17.97
2022-09-24T20:34:34.473Z,17.98
2022-09-24T20:37:05.693Z,17.99
2022-09-24T20:39:33.871Z,17.98
2022-09-24T20:42:06.005Z,17.95
2022-09-24T20:44:34.548Z,17.96
2022-09-24T20:47:02.545Z,17.87
2022-09-24T20:49:31.773Z,17.83
2022-09-24T20:52:01.445Z,17.82
2022-09-24T20:54:29.589Z,17.78
2022-09-24T20:56:57.864Z,17.70
2022-09-24T20:59:27.207Z,17.69
2022-09-24T21:01:55.670Z,17.66
2022-09-24T21:04:24.049Z,17.57
2022-09-24T21:06:51.913Z,17.54
2022-09-24T21:09:19.760Z,17.45
2022-09-24T21:11:50.227Z,17.43
2022-09-24T21:14:18.652Z,17.40
2022-09-24T21:16:47.492Z,17.32
2022-09-24T21:19:15.954Z,17.26
2022-09-24T21:21:43.726Z,17.28
2022-09-24T21:24:14.599Z,17.31
2022-09-24T21:26:45.347Z,17.30
2022-09-24T21:29:18.926Z,17.22
2022-09-24T21:31:48.034Z,17.24
2022-09-24T21:34:19.879Z,17.24
2022-09-24T21:36:47.806Z,17.21
2022-09-24T21:39:20.120Z,17.21
2022-09-24T21:41:49.994Z,17.19
2022-09-24T21:44:19.310Z,17.17
2022-09-24T21:46:50.733Z,17.12
2022-09-24T21:49:19.514Z,17.10
2022-09-24T21:51:47.521Z,17.07
2022-09-24T21:54:18.276Z,17.02
2022-09-24T21:56:46.938Z,17.01
2022-09-24T21:59:34.912Z,17.00
2022-09-24T22:02:04.231Z,17.03
2022-09-24T22:04:33.318Z,16.93
2022-09-24T22:07:01.874Z,16.92
2022-09-24T22:09:32.261Z,16.69
2022-09-24T22:12:04.705Z,16.81
2022-09-24T22:14:34.844Z,16.84
2022-09-24T22:17:04.102Z,16.83
2022-09-24T22:19:32.050Z,16.87
2022-09-24T22:22:00.081Z,16.91
2022-09-24T22:24:29.176Z,16.88
2022-09-24T22:26:57.401Z,16.89
2022-09-24T22:29:25.374Z,16.85
2022-09-24T22:31:53.245Z,16.87
2022-09-24T22:34:39.857Z,16.72
2022-09-24T22:37:08.071Z,16.79
2022-09-24T22:39:36.182Z,16.76
2022-09-24T22:42:05.206Z,16.82
2022-09-24T22:44:33.055Z,16.88
2022-09-24T22:47:00.856Z,16.90
2022-09-24T22:49:29.104Z,16.91
2022-09-24T22:51:56.965Z,16.92
2022-09-24T22:54:24.966Z,16.87
2022-09-24T22:56:52.772Z,16.88
2022-09-24T22:59:20.525Z,16.89
2022-09-24T23:01:48.439Z,16.91
2022-09-24T23:04:16.285Z,16.92
2022-09-24T23:06:44.437Z,16.93
2022-09-24T23:09:12.449Z,16.93
2022-09-24T23:11:40.342Z,16.95
2022-09-24T23:14:14.363Z,16.95
2022-09-24T23:16:43.512Z,16.91
2022-09-24T23:19:19.942Z,16.88
2022-09-24T23:21:47.821Z,16.90
2022-09-24T23:24:18.375Z,16.91
2022-09-24T23:26:46.618Z,16.93
2022-09-24T23:29:15.314Z,16.91
2022-09-24T23:31:43.391Z,16.87
2022-09-24T23:34:13.513Z,16.84
2022-09-24T23:36:42.108Z,16.80
2022-09-24T23:39:10.520Z,16.81
2022-09-24T23:41:38.468Z,16.76
2022-09-24T23:44:06.813Z,16.70
2022-09-24T23:46:34.777Z,16.66
2022-09-24T23:49:04.512Z,16.62
2022-09-24T23:51:32.631Z,16.63
2022-09-24T23:54:00.379Z,16.64
2022-09-24T23:56:28.548Z,16.67
2022-09-24T23:58:56.624Z,16.69
